sensor_id;sensor_type;location;lat;lon;timestamp;P1;durP1;ratioP1;P2;durP2;ratioP2
20725;SDS011;10524;48.132;8.518;2023-02-04T00:00:22;1.10;;;0.40;;
20725;SDS011;10524;48.132;8.518;2023-02-04T00:02:48;0.50;;;0.50;;
20725;SDS011;10524;48.132;8.518;2023-02-04T00:05:15;0.50;;;0.50;;
20725;SDS011;10524;48.132;8.518;2023-02-04T00:07:42;0.45;;;0.45;;
20725;SDS011;10524;48.132;8.518;2023-02-04T00:10:08;0.52;;;0.52;;
20725;SDS011;10524;48.132;8.518;2023-02-04T00:12:34;0.47;;;0.40;;
20725;SDS011;10524;48.132;8.518;2023-02-04T00:15:00;0.40;;;0.40;;
20725;SDS011;10524;48.132;8.518;2023-02-04T00:17:26;0.43;;;0.40;;
20725;SDS011;10524;48.132;8.518;2023-02-04T00:19:51;0.40;;;0.40;;
20725;SDS011;10524;48.132;8.518;2023-02-04T00:22:17;0.40;;;0.40;;
20725;SDS011;10524;48.132;8.518;2023-02-04T00:24:43;0.50;;;0.50;;
20725;SDS011;10524;48.132;8.518;2023-02-04T00:27:12;1.83;;;0.60;;
20725;SDS011;10524;48.132;8.518;2023-02-04T00:29:38;0.52;;;0.52;;
20725;SDS011;10524;48.132;8.518;2023-02-04T00:32:03;1.25;;;0.60;;
20725;SDS011;10524;48.132;8.518;2023-02-04T00:34:29;0.70;;;0.60;;
20725;SDS011;10524;48.132;8.518;2023-02-04T00:36:55;0.50;;;0.50;;
20725;SDS011;10524;48.132;8.518;2023-02-04T00:39:20;0.50;;;0.50;;
20725;SDS011;10524;48.132;8.518;2023-02-04T00:41:46;0.75;;;0.70;;
20725;SDS011;10524;48.132;8.518;2023-02-04T00:44:11;0.80;;;0.70;;
20725;SDS011;10524;48.132;8.518;2023-02-04T00:46:40;0.95;;;0.85;;
20725;SDS011;10524;48.132;8.518;2023-02-04T00:49:06;0.70;;;0.70;;
20725;SDS011;10524;48.132;8.518;2023-02-04T00:51:35;1.17;;;0.77;;
20725;SDS011;10524;48.132;8.518;2023-02-04T00:54:02;1.63;;;1.00;;
20725;SDS011;10524;48.132;8.518;2023-02-04T00:56:28;1.95;;;0.90;;
20725;SDS011;10524;48.132;8.518;2023-02-04T00:58:53;1.10;;;1.00;;
20725;SDS011;10524;48.132;8.518;2023-02-04T01:01:19;1.25;;;1.10;;
20725;SDS011;10524;48.132;8.518;2023-02-04T01:03:45;3.28;;;1.20;;
20725;SDS011;10524;48.132;8.518;2023-02-04T01:06:10;1.92;;;1.20;;
20725;SDS011;10524;48.132;8.518;2023-02-04T01:08:36;3.28;;;1.35;;
20725;SDS011;10524;48.132;8.518;2023-02-04T01:11:01;2.17;;;1.60;;
20725;SDS011;10524;48.132;8.518;2023-02-04T01:13:28;2.05;;;1.50;;
20725;SDS011;10524;48.132;8.518;2023-02-04T01:15:53;1.50;;;1.30;;
20725;SDS011;10524;48.132;8.518;2023-02-04T01:18:19;2.13;;;1.60;;
20725;SDS011;10524;48.132;8.518;2023-02-04T01:20:44;2.05;;;1.67;;
20725;SDS011;10524;48.132;8.518;2023-02-04T01:23:10;2.28;;;1.52;;
20725;SDS011;10524;48.132;8.518;2023-02-04T01:25:36;3.00;;;2.08;;
20725;SDS011;10524;48.132;8.518;2023-02-04T01:28:01;3.28;;;2.10;;
20725;SDS011;10524;48.132;8.518;2023-02-04T01:30:27;2.85;;;2.17;;
20725;SDS011;10524;48.132;8.518;2023-02-04T01:32:53;3.05;;;2.47;;
20725;SDS011;10524;48.132;8.518;2023-02-04T01:35:18;3.53;;;2.42;;
20725;SDS011;10524;48.132;8.518;2023-02-04T01:37:44;2.97;;;2.50;;
20725;SDS011;10524;48.132;8.518;2023-02-04T01:40:10;3.55;;;2.72;;
20725;SDS011;10524;48.132;8.518;2023-02-04T01:42:36;4.63;;;2.88;;
20725;SDS011;10524;48.132;8.518;2023-02-04T01:45:02;3.38;;;2.47;;
20725;SDS011;10524;48.132;8.518;2023-02-04T01:47:30;3.60;;;2.80;;
20725;SDS011;10524;48.132;8.518;2023-02-04T01:49:56;3.30;;;2.50;;
20725;SDS011;10524;48.132;8.518;2023-02-04T01:52:22;4.75;;;2.22;;
20725;SDS011;10524;48.132;8.518;2023-02-04T01:54:49;3.05;;;2.20;;
20725;SDS011;10524;48.132;8.518;2023-02-04T01:57:15;2.60;;;2.28;;
20725;SDS011;10524;48.132;8.518;2023-02-04T01:59:45;2.58;;;2.22;;
20725;SDS011;10524;48.132;8.518;2023-02-04T02:05:07;3.03;;;2.00;;
20725;SDS011;10524;48.132;8.518;2023-02-04T02:07:36;3.25;;;2.10;;
20725;SDS011;10524;48.132;8.518;2023-02-04T02:10:05;3.78;;;1.80;;
20725;SDS011;10524;48.132;8.518;2023-02-04T02:12:33;1.63;;;1.45;;
20725;SDS011;10524;48.132;8.518;2023-02-04T02:14:59;1.63;;;1.40;;
20725;SDS011;10524;48.132;8.518;2023-02-04T02:17:25;2.78;;;1.30;;
20725;SDS011;10524;48.132;8.518;2023-02-04T02:19:50;2.28;;;1.40;;
20725;SDS011;10524;48.132;8.518;2023-02-04T02:25:20;1.67;;;1.48;;
20725;SDS011;10524;48.132;8.518;2023-02-04T02:27:46;3.15;;;1.30;;
20725;SDS011;10524;48.132;8.518;2023-02-04T02:30:12;1.60;;;1.40;;
20725;SDS011;10524;48.132;8.518;2023-02-04T02:32:41;1.67;;;1.20;;
20725;SDS011;10524;48.132;8.518;2023-02-04T02:35:09;1.73;;;1.52;;
20725;SDS011;10524;48.132;8.518;2023-02-04T02:37:35;1.95;;;1.58;;
20725;SDS011;10524;48.132;8.518;2023-02-04T02:40:00;2.17;;;1.33;;
20725;SDS011;10524;48.132;8.518;2023-02-04T02:42:27;1.83;;;1.30;;
20725;SDS011;10524;48.132;8.518;2023-02-04T02:44:53;1.60;;;1.20;;
20725;SDS011;10524;48.132;8.518;2023-02-04T02:47:20;1.70;;;1.30;;
20725;SDS011;10524;48.132;8.518;2023-02-04T02:49:48;3.53;;;1.17;;
20725;SDS011;10524;48.132;8.518;2023-02-04T02:52:16;1.48;;;1.38;;
20725;SDS011;10524;48.132;8.518;2023-02-04T02:54:42;1.40;;;1.20;;
20725;SDS011;10524;48.132;8.518;2023-02-04T02:57:15;1.40;;;1.02;;
20725;SDS011;10524;48.132;8.518;2023-02-04T02:59:43;2.72;;;1.10;;
20725;SDS011;10524;48.132;8.518;2023-02-04T03:02:10;1.83;;;1.30;;
20725;SDS011;10524;48.132;8.518;2023-02-04T03:04:40;1.65;;;1.20;;
20725;SDS011;10524;48.132;8.518;2023-02-04T03:07:10;1.35;;;1.13;;
20725;SDS011;10524;48.132;8.518;2023-02-04T03:09:38;1.40;;;1.30;;
20725;SDS011;10524;48.132;8.518;2023-02-04T03:12:03;1.60;;;1.30;;
20725;SDS011;10524;48.132;8.518;2023-02-04T03:14:30;1.80;;;1.48;;
20725;SDS011;10524;48.132;8.518;2023-02-04T03:16:57;2.08;;;1.40;;
20725;SDS011;10524;48.132;8.518;2023-02-04T03:19:24;1.98;;;1.40;;
20725;SDS011;10524;48.132;8.518;2023-02-04T03:21:51;2.08;;;1.60;;
20725;SDS011;10524;48.132;8.518;2023-02-04T03:24:21;2.38;;;1.60;;
20725;SDS011;10524;48.132;8.518;2023-02-04T03:26:47;2.30;;;1.67;;
20725;SDS011;10524;48.132;8.518;2023-02-04T03:29:13;2.40;;;1.50;;
20725;SDS011;10524;48.132;8.518;2023-02-04T03:31:39;1.90;;;1.70;;
20725;SDS011;10524;48.132;8.518;2023-02-04T03:34:05;3.80;;;2.20;;
20725;SDS011;10524;48.132;8.518;2023-02-04T03:36:31;2.83;;;2.30;;
20725;SDS011;10524;48.132;8.518;2023-02-04T03:38:56;3.78;;;2.42;;
20725;SDS011;10524;48.132;8.518;2023-02-04T03:41:22;2.40;;;2.17;;
20725;SDS011;10524;48.132;8.518;2023-02-04T03:43:48;3.20;;;2.33;;
20725;SDS011;10524;48.132;8.518;2023-02-04T03:46:13;2.72;;;2.40;;
20725;SDS011;10524;48.132;8.518;2023-02-04T03:48:39;2.80;;;2.20;;
20725;SDS011;10524;48.132;8.518;2023-02-04T03:51:04;2.60;;;2.20;;
20725;SDS011;10524;48.132;8.518;2023-02-04T03:53:30;2.95;;;2.22;;
20725;SDS011;10524;48.132;8.518;2023-02-04T03:55:56;3.33;;;2.28;;
20725;SDS011;10524;48.132;8.518;2023-02-04T03:58:22;2.92;;;1.90;;
20725;SDS011;10524;48.132;8.518;2023-02-04T04:00:48;2.92;;;2.10;;
20725;SDS011;10524;48.132;8.518;2023-02-04T04:03:14;2.17;;;1.75;;
20725;SDS011;10524;48.132;8.518;2023-02-04T04:05:39;2.20;;;1.73;;
20725;SDS011;10524;48.132;8.518;2023-02-04T04:08:05;2.00;;;1.48;;
20725;SDS011;10524;48.132;8.518;2023-02-04T04:10:31;1.52;;;1.40;;
20725;SDS011;10524;48.132;8.518;2023-02-04T04:12:56;1.52;;;1.38;;
20725;SDS011;10524;48.132;8.518;2023-02-04T04:15:22;1.70;;;1.40;;
20725;SDS011;10524;48.132;8.518;2023-02-04T04:17:48;1.63;;;1.42;;
20725;SDS011;10524;48.132;8.518;2023-02-04T04:20:14;1.30;;;1.20;;
20725;SDS011;10524;48.132;8.518;2023-02-04T04:22:40;1.40;;;1.30;;
20725;SDS011;10524;48.132;8.518;2023-02-04T04:25:05;1.60;;;1.35;;
20725;SDS011;10524;48.132;8.518;2023-02-04T04:27:31;1.35;;;1.20;;
20725;SDS011;10524;48.132;8.518;2023-02-04T04:29:57;1.40;;;1.00;;
20725;SDS011;10524;48.132;8.518;2023-02-04T04:32:23;1.20;;;1.10;;
20725;SDS011;10524;48.132;8.518;2023-02-04T04:34:48;1.40;;;1.30;;
20725;SDS011;10524;48.132;8.518;2023-02-04T04:37:14;1.30;;;1.10;;
20725;SDS011;10524;48.132;8.518;2023-02-04T04:39:40;1.30;;;1.10;;
20725;SDS011;10524;48.132;8.518;2023-02-04T04:42:05;1.75;;;1.00;;
20725;SDS011;10524;48.132;8.518;2023-02-04T04:44:31;1.05;;;0.90;;
20725;SDS011;10524;48.132;8.518;2023-02-04T04:46:56;1.20;;;0.90;;
20725;SDS011;10524;48.132;8.518;2023-02-04T04:49:22;1.10;;;1.00;;
20725;SDS011;10524;48.132;8.518;2023-02-04T04:51:48;1.10;;;1.00;;
20725;SDS011;10524;48.132;8.518;2023-02-04T04:54:14;1.20;;;1.10;;
20725;SDS011;10524;48.132;8.518;2023-02-04T04:56:39;1.10;;;1.00;;
20725;SDS011;10524;48.132;8.518;2023-02-04T04:59:05;1.23;;;1.13;;
20725;SDS011;10524;48.132;8.518;2023-02-04T05:01:31;1.50;;;1.38;;
20725;SDS011;10524;48.132;8.518;2023-02-04T05:03:57;1.30;;;1.20;;
20725;SDS011;10524;48.132;8.518;2023-02-04T05:06:23;1.70;;;1.13;;
20725;SDS011;10524;48.132;8.518;2023-02-04T05:08:52;1.63;;;1.10;;
20725;SDS011;10524;48.132;8.518;2023-02-04T05:11:17;1.70;;;1.15;;
20725;SDS011;10524;48.132;8.518;2023-02-04T05:13:43;1.40;;;1.20;;
20725;SDS011;10524;48.132;8.518;2023-02-04T05:16:09;1.40;;;1.30;;
20725;SDS011;10524;48.132;8.518;2023-02-04T05:18:36;1.95;;;1.45;;
20725;SDS011;10524;48.132;8.518;2023-02-04T05:21:03;1.63;;;1.48;;
20725;SDS011;10524;48.132;8.518;2023-02-04T05:23:28;2.53;;;1.60;;
20725;SDS011;10524;48.132;8.518;2023-02-04T05:25:54;1.90;;;1.70;;
20725;SDS011;10524;48.132;8.518;2023-02-04T05:28:20;2.20;;;1.90;;
20725;SDS011;10524;48.132;8.518;2023-02-04T05:30:46;5.03;;;3.00;;
20725;SDS011;10524;48.132;8.518;2023-02-04T05:33:11;3.10;;;2.38;;
20725;SDS011;10524;48.132;8.518;2023-02-04T05:35:37;3.88;;;2.90;;
20725;SDS011;10524;48.132;8.518;2023-02-04T05:38:03;3.17;;;2.50;;
20725;SDS011;10524;48.132;8.518;2023-02-04T05:40:28;3.58;;;2.80;;
20725;SDS011;10524;48.132;8.518;2023-02-04T05:42:54;2.33;;;1.80;;
20725;SDS011;10524;48.132;8.518;2023-02-04T05:45:19;2.38;;;1.70;;
20725;SDS011;10524;48.132;8.518;2023-02-04T05:47:45;2.05;;;1.73;;
20725;SDS011;10524;48.132;8.518;2023-02-04T05:50:11;2.08;;;1.60;;
20725;SDS011;10524;48.132;8.518;2023-02-04T05:52:36;2.72;;;1.70;;
20725;SDS011;10524;48.132;8.518;2023-02-04T05:55:02;3.08;;;2.50;;
20725;SDS011;10524;48.132;8.518;2023-02-04T05:57:28;5.05;;;3.33;;
20725;SDS011;10524;48.132;8.518;2023-02-04T05:59:54;7.22;;;4.40;;
20725;SDS011;10524;48.132;8.518;2023-02-04T06:02:19;5.97;;;4.22;;
20725;SDS011;10524;48.132;8.518;2023-02-04T06:04:45;4.82;;;3.90;;
20725;SDS011;10524;48.132;8.518;2023-02-04T06:07:11;5.57;;;4.22;;
20725;SDS011;10524;48.132;8.518;2023-02-04T06:09:36;5.70;;;4.38;;
20725;SDS011;10524;48.132;8.518;2023-02-04T06:12:02;5.43;;;4.35;;
20725;SDS011;10524;48.132;8.518;2023-02-04T06:14:28;3.72;;;3.22;;
20725;SDS011;10524;48.132;8.518;2023-02-04T06:16:53;2.88;;;2.40;;
20725;SDS011;10524;48.132;8.518;2023-02-04T06:19:19;1.67;;;1.55;;
20725;SDS011;10524;48.132;8.518;2023-02-04T06:21:44;1.55;;;1.38;;
20725;SDS011;10524;48.132;8.518;2023-02-04T06:24:10;1.90;;;1.30;;
20725;SDS011;10524;48.132;8.518;2023-02-04T06:26:36;1.65;;;1.15;;
20725;SDS011;10524;48.132;8.518;2023-02-04T06:29:01;2.17;;;1.20;;
20725;SDS011;10524;48.132;8.518;2023-02-04T06:31:27;1.08;;;0.98;;
20725;SDS011;10524;48.132;8.518;2023-02-04T06:33:53;0.98;;;0.77;;
20725;SDS011;10524;48.132;8.518;2023-02-04T06:36:18;1.00;;;0.90;;
20725;SDS011;10524;48.132;8.518;2023-02-04T06:38:44;1.30;;;1.10;;
20725;SDS011;10524;48.132;8.518;2023-02-04T06:41:09;1.70;;;1.00;;
20725;SDS011;10524;48.132;8.518;2023-02-04T06:43:35;1.35;;;0.93;;
20725;SDS011;10524;48.132;8.518;2023-02-04T06:46:00;1.30;;;0.98;;
20725;SDS011;10524;48.132;8.518;2023-02-04T06:48:26;1.73;;;1.23;;
20725;SDS011;10524;48.132;8.518;2023-02-04T06:50:52;0.93;;;0.90;;
20725;SDS011;10524;48.132;8.518;2023-02-04T06:53:17;1.13;;;1.00;;
20725;SDS011;10524;48.132;8.518;2023-02-04T06:55:43;3.28;;;1.00;;
20725;SDS011;10524;48.132;8.518;2023-02-04T06:58:08;0.95;;;0.90;;
20725;SDS011;10524;48.132;8.518;2023-02-04T07:00:34;1.30;;;1.20;;
20725;SDS011;10524;48.132;8.518;2023-02-04T07:02:59;1.40;;;1.30;;
20725;SDS011;10524;48.132;8.518;2023-02-04T07:05:25;1.70;;;1.30;;
20725;SDS011;10524;48.132;8.518;2023-02-04T07:07:51;1.58;;;1.30;;
20725;SDS011;10524;48.132;8.518;2023-02-04T07:10:16;2.20;;;1.58;;
20725;SDS011;10524;48.132;8.518;2023-02-04T07:12:42;1.60;;;1.40;;
20725;SDS011;10524;48.132;8.518;2023-02-04T07:15:08;2.30;;;1.73;;
20725;SDS011;10524;48.132;8.518;2023-02-04T07:17:34;1.95;;;1.70;;
20725;SDS011;10524;48.132;8.518;2023-02-04T07:20:00;2.00;;;1.80;;
20725;SDS011;10524;48.132;8.518;2023-02-04T07:22:25;3.10;;;2.67;;
20725;SDS011;10524;48.132;8.518;2023-02-04T07:24:51;2.10;;;1.90;;
20725;SDS011;10524;48.132;8.518;2023-02-04T07:27:17;1.67;;;1.58;;
20725;SDS011;10524;48.132;8.518;2023-02-04T07:29:42;2.10;;;1.73;;
20725;SDS011;10524;48.132;8.518;2023-02-04T07:32:08;3.83;;;2.50;;
20725;SDS011;10524;48.132;8.518;2023-02-04T07:34:33;6.03;;;3.50;;
20725;SDS011;10524;48.132;8.518;2023-02-04T07:37:00;4.78;;;3.75;;
20725;SDS011;10524;48.132;8.518;2023-02-04T07:39:25;3.40;;;2.55;;
20725;SDS011;10524;48.132;8.518;2023-02-04T07:41:51;2.60;;;2.30;;
20725;SDS011;10524;48.132;8.518;2023-02-04T07:44:17;4.50;;;2.25;;
20725;SDS011;10524;48.132;8.518;2023-02-04T07:46:42;2.45;;;1.80;;
20725;SDS011;10524;48.132;8.518;2023-02-04T07:49:08;2.78;;;2.13;;
20725;SDS011;10524;48.132;8.518;2023-02-04T07:51:34;2.40;;;2.20;;
20725;SDS011;10524;48.132;8.518;2023-02-04T07:53:59;2.30;;;1.85;;
20725;SDS011;10524;48.132;8.518;2023-02-04T07:56:25;2.20;;;1.50;;
20725;SDS011;10524;48.132;8.518;2023-02-04T07:58:50;1.75;;;1.38;;
20725;SDS011;10524;48.132;8.518;2023-02-04T08:01:16;2.25;;;1.50;;
20725;SDS011;10524;48.132;8.518;2023-02-04T08:03:42;2.17;;;1.38;;
20725;SDS011;10524;48.132;8.518;2023-02-04T08:06:09;1.40;;;1.10;;
20725;SDS011;10524;48.132;8.518;2023-02-04T08:08:35;1.58;;;1.23;;
20725;SDS011;10524;48.132;8.518;2023-02-04T08:11:01;2.03;;;1.67;;
20725;SDS011;10524;48.132;8.518;2023-02-04T08:13:26;1.33;;;1.23;;
20725;SDS011;10524;48.132;8.518;2023-02-04T08:15:52;1.88;;;1.30;;
20725;SDS011;10524;48.132;8.518;2023-02-04T08:18:17;2.08;;;1.00;;
20725;SDS011;10524;48.132;8.518;2023-02-04T08:20:43;1.15;;;1.00;;
20725;SDS011;10524;48.132;8.518;2023-02-04T08:23:09;1.10;;;1.00;;
20725;SDS011;10524;48.132;8.518;2023-02-04T08:25:34;1.88;;;0.90;;
20725;SDS011;10524;48.132;8.518;2023-02-04T08:28:00;1.27;;;1.00;;
20725;SDS011;10524;48.132;8.518;2023-02-04T08:30:26;2.03;;;0.90;;
20725;SDS011;10524;48.132;8.518;2023-02-04T08:32:52;1.40;;;0.80;;
20725;SDS011;10524;48.132;8.518;2023-02-04T08:35:17;1.73;;;0.70;;
20725;SDS011;10524;48.132;8.518;2023-02-04T08:37:43;0.70;;;0.70;;
20725;SDS011;10524;48.132;8.518;2023-02-04T08:40:09;1.92;;;0.70;;
20725;SDS011;10524;48.132;8.518;2023-02-04T08:42:35;2.22;;;0.80;;
20725;SDS011;10524;48.132;8.518;2023-02-04T08:45:00;1.83;;;1.20;;
20725;SDS011;10524;48.132;8.518;2023-02-04T08:47:26;3.28;;;2.15;;
20725;SDS011;10524;48.132;8.518;2023-02-04T08:49:52;3.63;;;1.83;;
20725;SDS011;10524;48.132;8.518;2023-02-04T08:52:17;3.33;;;2.40;;
20725;SDS011;10524;48.132;8.518;2023-02-04T08:54:43;3.10;;;1.48;;
20725;SDS011;10524;48.132;8.518;2023-02-04T08:57:09;1.13;;;0.90;;
20725;SDS011;10524;48.132;8.518;2023-02-04T08:59:34;1.45;;;1.10;;
20725;SDS011;10524;48.132;8.518;2023-02-04T09:02:00;1.20;;;1.10;;
20725;SDS011;10524;48.132;8.518;2023-02-04T09:04:27;2.67;;;1.00;;
20725;SDS011;10524;48.132;8.518;2023-02-04T09:06:53;1.58;;;0.88;;
20725;SDS011;10524;48.132;8.518;2023-02-04T09:09:18;2.65;;;1.10;;
20725;SDS011;10524;48.132;8.518;2023-02-04T09:11:44;2.45;;;1.20;;
20725;SDS011;10524;48.132;8.518;2023-02-04T09:14:11;4.25;;;1.58;;
20725;SDS011;10524;48.132;8.518;2023-02-04T09:16:36;1.95;;;1.35;;
20725;SDS011;10524;48.132;8.518;2023-02-04T09:19:02;1.77;;;0.80;;
20725;SDS011;10524;48.132;8.518;2023-02-04T09:21:28;2.10;;;0.80;;
20725;SDS011;10524;48.132;8.518;2023-02-04T09:23:55;2.85;;;1.05;;
20725;SDS011;10524;48.132;8.518;2023-02-04T09:26:21;4.03;;;1.23;;
20725;SDS011;10524;48.132;8.518;2023-02-04T09:28:46;3.00;;;1.30;;
20725;SDS011;10524;48.132;8.518;2023-02-04T09:31:13;2.53;;;1.30;;
20725;SDS011;10524;48.132;8.518;2023-02-04T09:33:39;2.58;;;1.65;;
20725;SDS011;10524;48.132;8.518;2023-02-04T09:36:05;2.65;;;1.50;;
20725;SDS011;10524;48.132;8.518;2023-02-04T09:38:31;3.08;;;1.40;;
20725;SDS011;10524;48.132;8.518;2023-02-04T09:40:59;2.88;;;1.35;;
20725;SDS011;10524;48.132;8.518;2023-02-04T09:43:33;2.88;;;1.73;;
20725;SDS011;10524;48.132;8.518;2023-02-04T09:46:02;3.85;;;1.90;;
20725;SDS011;10524;48.132;8.518;2023-02-04T09:48:28;3.50;;;2.15;;
20725;SDS011;10524;48.132;8.518;2023-02-04T09:50:58;3.78;;;2.70;;
20725;SDS011;10524;48.132;8.518;2023-02-04T09:53:29;3.40;;;2.60;;
20725;SDS011;10524;48.132;8.518;2023-02-04T09:55:56;4.30;;;2.13;;
20725;SDS011;10524;48.132;8.518;2023-02-04T09:58:22;3.92;;;1.90;;
20725;SDS011;10524;48.132;8.518;2023-02-04T10:00:51;2.33;;;1.60;;
20725;SDS011;10524;48.132;8.518;2023-02-04T10:03:23;6.50;;;1.75;;
20725;SDS011;10524;48.132;8.518;2023-02-04T10:05:49;3.40;;;1.55;;
20725;SDS011;10524;48.132;8.518;2023-02-04T10:08:17;6.70;;;2.08;;
20725;SDS011;10524;48.132;8.518;2023-02-04T10:10:45;4.88;;;1.70;;
20725;SDS011;10524;48.132;8.518;2023-02-04T10:13:16;3.28;;;1.70;;
20725;SDS011;10524;48.132;8.518;2023-02-04T10:15:45;3.78;;;2.00;;
20725;SDS011;10524;48.132;8.518;2023-02-04T10:18:15;5.65;;;2.10;;
20725;SDS011;10524;48.132;8.518;2023-02-04T10:20:47;4.45;;;2.10;;
20725;SDS011;10524;48.132;8.518;2023-02-04T10:23:13;7.80;;;2.45;;
20725;SDS011;10524;48.132;8.518;2023-02-04T10:25:39;7.25;;;2.70;;
20725;SDS011;10524;48.132;8.518;2023-02-04T10:28:04;6.30;;;2.63;;
20725;SDS011;10524;48.132;8.518;2023-02-04T10:30:31;9.15;;;3.10;;
20725;SDS011;10524;48.132;8.518;2023-02-04T10:33:14;6.72;;;2.80;;
20725;SDS011;10524;48.132;8.518;2023-02-04T10:35:47;5.18;;;3.33;;
20725;SDS011;10524;48.132;8.518;2023-02-04T10:38:14;12.02;;;3.28;;
20725;SDS011;10524;48.132;8.518;2023-02-04T10:40:40;7.60;;;4.10;;
20725;SDS011;10524;48.132;8.518;2023-02-04T10:43:10;10.45;;;3.63;;
20725;SDS011;10524;48.132;8.518;2023-02-04T10:45:42;16.55;;;7.00;;
20725;SDS011;10524;48.132;8.518;2023-02-04T10:48:27;19.67;;;9.68;;
20725;SDS011;10524;48.132;8.518;2023-02-04T10:50:56;8.73;;;4.50;;
20725;SDS011;10524;48.132;8.518;2023-02-04T10:53:23;17.42;;;6.93;;
20725;SDS011;10524;48.132;8.518;2023-02-04T10:56:14;10.10;;;4.20;;
20725;SDS011;10524;48.132;8.518;2023-02-04T10:58:42;14.50;;;6.97;;
20725;SDS011;10524;48.132;8.518;2023-02-04T11:01:09;13.45;;;4.93;;
20725;SDS011;10524;48.132;8.518;2023-02-04T11:03:36;15.95;;;5.85;;
20725;SDS011;10524;48.132;8.518;2023-02-04T11:06:04;15.18;;;6.47;;
20725;SDS011;10524;48.132;8.518;2023-02-04T11:08:37;11.13;;;4.90;;
20725;SDS011;10524;48.132;8.518;2023-02-04T11:11:15;11.60;;;4.72;;
20725;SDS011;10524;48.132;8.518;2023-02-04T11:13:43;12.25;;;4.72;;
20725;SDS011;10524;48.132;8.518;2023-02-04T11:16:30;10.07;;;4.28;;
20725;SDS011;10524;48.132;8.518;2023-02-04T11:19:00;12.80;;;5.10;;
20725;SDS011;10524;48.132;8.518;2023-02-04T11:21:40;13.10;;;4.63;;
20725;SDS011;10524;48.132;8.518;2023-02-04T11:26:43;13.77;;;4.87;;
20725;SDS011;10524;48.132;8.518;2023-02-04T11:39:35;10.38;;;4.68;;
20725;SDS011;10524;48.132;8.518;2023-02-04T11:42:19;16.45;;;6.18;;
20725;SDS011;10524;48.132;8.518;2023-02-04T11:45:46;17.42;;;5.88;;
20725;SDS011;10524;48.132;8.518;2023-02-04T11:47:55;14.55;;;5.85;;
20725;SDS011;10524;48.132;8.518;2023-02-04T11:50:34;15.32;;;6.22;;
20725;SDS011;10524;48.132;8.518;2023-02-04T11:53:02;18.45;;;6.80;;
20725;SDS011;10524;48.132;8.518;2023-02-04T11:55:30;19.23;;;6.25;;
20725;SDS011;10524;48.132;8.518;2023-02-04T11:57:58;14.77;;;5.95;;
20725;SDS011;10524;48.132;8.518;2023-02-04T12:00:28;16.88;;;6.07;;
20725;SDS011;10524;48.132;8.518;2023-02-04T12:05:34;19.02;;;6.57;;
20725;SDS011;10524;48.132;8.518;2023-02-04T12:08:09;18.20;;;6.00;;
20725;SDS011;10524;48.132;8.518;2023-02-04T12:10:36;14.93;;;5.22;;
20725;SDS011;10524;48.132;8.518;2023-02-04T12:13:10;21.48;;;7.07;;
20725;SDS011;10524;48.132;8.518;2023-02-04T12:15:37;18.63;;;5.82;;
20725;SDS011;10524;48.132;8.518;2023-02-04T12:18:06;17.08;;;5.35;;
20725;SDS011;10524;48.132;8.518;2023-02-04T12:20:33;21.48;;;5.65;;
20725;SDS011;10524;48.132;8.518;2023-02-04T12:22:59;19.55;;;6.93;;
20725;SDS011;10524;48.132;8.518;2023-02-04T12:25:25;17.55;;;6.30;;
20725;SDS011;10524;48.132;8.518;2023-02-04T12:27:52;21.67;;;6.05;;
20725;SDS011;10524;48.132;8.518;2023-02-04T12:30:19;14.50;;;4.90;;
20725;SDS011;10524;48.132;8.518;2023-02-04T12:32:49;14.18;;;4.75;;
20725;SDS011;10524;48.132;8.518;2023-02-04T12:35:15;13.50;;;4.68;;
20725;SDS011;10524;48.132;8.518;2023-02-04T12:37:41;16.25;;;5.55;;
20725;SDS011;10524;48.132;8.518;2023-02-04T12:40:07;13.88;;;4.70;;
20725;SDS011;10524;48.132;8.518;2023-02-04T12:42:37;16.92;;;5.30;;
20725;SDS011;10524;48.132;8.518;2023-02-04T12:45:03;13.95;;;5.45;;
20725;SDS011;10524;48.132;8.518;2023-02-04T12:47:29;15.40;;;6.15;;
20725;SDS011;10524;48.132;8.518;2023-02-04T12:49:54;17.50;;;5.07;;
20725;SDS011;10524;48.132;8.518;2023-02-04T12:52:20;14.02;;;4.90;;
20725;SDS011;10524;48.132;8.518;2023-02-04T12:54:45;15.85;;;5.53;;
20725;SDS011;10524;48.132;8.518;2023-02-04T12:57:11;16.00;;;5.97;;
20725;SDS011;10524;48.132;8.518;2023-02-04T12:59:38;15.05;;;5.10;;
20725;SDS011;10524;48.132;8.518;2023-02-04T13:02:04;16.88;;;5.10;;
20725;SDS011;10524;48.132;8.518;2023-02-04T13:04:30;16.65;;;5.55;;
20725;SDS011;10524;48.132;8.518;2023-02-04T13:06:55;43.15;;;23.70;;
20725;SDS011;10524;48.132;8.518;2023-02-04T13:09:21;19.75;;;9.88;;
20725;SDS011;10524;48.132;8.518;2023-02-04T13:11:47;20.55;;;7.45;;
20725;SDS011;10524;48.132;8.518;2023-02-04T13:14:12;16.48;;;7.15;;
20725;SDS011;10524;48.132;8.518;2023-02-04T13:16:38;13.05;;;6.30;;
20725;SDS011;10524;48.132;8.518;2023-02-04T13:19:03;17.30;;;6.53;;
20725;SDS011;10524;48.132;8.518;2023-02-04T13:21:29;12.68;;;5.57;;
20725;SDS011;10524;48.132;8.518;2023-02-04T13:23:55;14.10;;;4.80;;
20725;SDS011;10524;48.132;8.518;2023-02-04T13:26:21;19.90;;;5.45;;
20725;SDS011;10524;48.132;8.518;2023-02-04T13:28:46;14.68;;;4.65;;
20725;SDS011;10524;48.132;8.518;2023-02-04T13:31:12;13.88;;;4.30;;
20725;SDS011;10524;48.132;8.518;2023-02-04T13:33:38;14.18;;;4.47;;
20725;SDS011;10524;48.132;8.518;2023-02-04T13:36:03;9.68;;;4.07;;
20725;SDS011;10524;48.132;8.518;2023-02-04T13:38:29;10.43;;;3.75;;
20725;SDS011;10524;48.132;8.518;2023-02-04T13:40:55;14.20;;;4.20;;
20725;SDS011;10524;48.132;8.518;2023-02-04T13:43:21;14.73;;;4.95;;
20725;SDS011;10524;48.132;8.518;2023-02-04T13:45:47;20.55;;;7.90;;
20725;SDS011;10524;48.132;8.518;2023-02-04T13:48:13;11.25;;;4.20;;
20725;SDS011;10524;48.132;8.518;2023-02-04T13:50:40;11.30;;;3.97;;
20725;SDS011;10524;48.132;8.518;2023-02-04T13:53:06;12.25;;;4.15;;
20725;SDS011;10524;48.132;8.518;2023-02-04T13:55:32;14.95;;;6.45;;
20725;SDS011;10524;48.132;8.518;2023-02-04T13:57:58;12.85;;;4.30;;
20725;SDS011;10524;48.132;8.518;2023-02-04T14:00:23;9.88;;;4.25;;
20725;SDS011;10524;48.132;8.518;2023-02-04T14:02:49;11.48;;;4.00;;
20725;SDS011;10524;48.132;8.518;2023-02-04T14:05:15;10.27;;;4.32;;
20725;SDS011;10524;48.132;8.518;2023-02-04T14:07:40;12.52;;;3.80;;
20725;SDS011;10524;48.132;8.518;2023-02-04T14:10:06;11.10;;;4.10;;
20725;SDS011;10524;48.132;8.518;2023-02-04T14:12:32;10.18;;;4.28;;
20725;SDS011;10524;48.132;8.518;2023-02-04T14:14:57;12.68;;;4.80;;
20725;SDS011;10524;48.132;8.518;2023-02-04T14:17:23;11.00;;;4.57;;
20725;SDS011;10524;48.132;8.518;2023-02-04T14:19:49;11.57;;;3.88;;
20725;SDS011;10524;48.132;8.518;2023-02-04T14:22:14;12.52;;;4.40;;
20725;SDS011;10524;48.132;8.518;2023-02-04T14:24:40;11.02;;;3.85;;
20725;SDS011;10524;48.132;8.518;2023-02-04T14:27:07;11.20;;;3.83;;
20725;SDS011;10524;48.132;8.518;2023-02-04T14:29:34;9.32;;;3.92;;
20725;SDS011;10524;48.132;8.518;2023-02-04T14:31:59;15.45;;;4.32;;
20725;SDS011;10524;48.132;8.518;2023-02-04T14:34:25;11.95;;;4.22;;
20725;SDS011;10524;48.132;8.518;2023-02-04T14:36:51;9.10;;;4.00;;
20725;SDS011;10524;48.132;8.518;2023-02-04T14:39:17;11.30;;;3.75;;
20725;SDS011;10524;48.132;8.518;2023-02-04T14:41:43;13.27;;;3.83;;
20725;SDS011;10524;48.132;8.518;2023-02-04T14:44:08;7.45;;;3.10;;
20725;SDS011;10524;48.132;8.518;2023-02-04T14:46:34;12.13;;;3.80;;
20725;SDS011;10524;48.132;8.518;2023-02-04T14:49:00;10.95;;;4.35;;
20725;SDS011;10524;48.132;8.518;2023-02-04T14:51:26;15.40;;;6.80;;
20725;SDS011;10524;48.132;8.518;2023-02-04T14:53:51;11.80;;;4.32;;
20725;SDS011;10524;48.132;8.518;2023-02-04T14:56:17;12.18;;;3.85;;
20725;SDS011;10524;48.132;8.518;2023-02-04T14:58:43;14.02;;;4.20;;
20725;SDS011;10524;48.132;8.518;2023-02-04T15:01:09;14.18;;;4.20;;